Carvoeiro, Brazil
Current Conditions -  °F | °C
As of 5:00 PM on Friday 31 Oct 2014 (Local Time) from SBMS Reporting Station
Few Clouds Few Clouds  
Wind Chill: 88°   Ceiling: Unl
Heat Index: 91°   Visibility: 6mi
Dew Point: 68°   Wind: 13mph
Humidity: 52%   Direction: 30°NNE
Pressure: 29.83"   Gusts: NA
Location:  6.12°S, 37.73°W
Report Text: SBMS 312000Z 03011KT 9999 FEW030 31/20 Q1010
Loading
Personal Weather Stations






























Interactive Weather Map
Tropical Storm Tracking
New forecast layout! Learn more

10-Day Weather Forecast

Advertisements
Track Severe Weather on mobile